createdAt,value
2022-10-20T00:01:09.755Z,68.75
2022-10-20T00:03:37.628Z,68.42
2022-10-20T00:06:25.213Z,67.96
2022-10-20T00:08:53.470Z,68.45
2022-10-20T00:11:21.849Z,68.94
2022-10-20T00:13:51.015Z,68.69
2022-10-20T00:16:18.830Z,68.13
2022-10-20T00:18:45.682Z,68.32
2022-10-20T00:21:18.937Z,67.81
2022-10-20T00:23:45.900Z,67.74
2022-10-20T00:26:16.671Z,67.87
2022-10-20T00:28:44.145Z,67.77
2022-10-20T00:31:11.975Z,67.69
2022-10-20T00:33:38.936Z,67.45
2022-10-20T00:36:08.527Z,67.49
2022-10-20T00:38:35.966Z,67.78
2022-10-20T00:41:03.488Z,68.01
2022-10-20T00:43:52.211Z,67.53
2022-10-20T00:46:30.772Z,67.20
2022-10-20T00:49:14.420Z,66.58
2022-10-20T00:51:42.700Z,66.96
2022-10-20T00:54:13.753Z,66.41
2022-10-20T00:56:42.221Z,67.22
2022-10-20T00:59:11.048Z,67.07
2022-10-20T01:01:39.105Z,67.44
2022-10-20T01:04:06.369Z,67.06
2022-10-20T01:06:33.486Z,67.56
2022-10-20T01:09:00.960Z,67.60
2022-10-20T01:11:27.734Z,67.87
2022-10-20T01:14:12.926Z,67.98
2022-10-20T01:16:46.578Z,67.49
2022-10-20T01:19:25.544Z,67.64
2022-10-20T01:22:19.827Z,68.00
2022-10-20T01:25:02.382Z,68.38
2022-10-20T01:27:39.831Z,68.25
2022-10-20T01:30:11.999Z,67.57
2022-10-20T01:32:53.112Z,67.71
2022-10-20T01:35:19.816Z,67.57
2022-10-20T01:38:10.090Z,67.29
2022-10-20T01:40:45.196Z,67.47
2022-10-20T01:43:15.151Z,67.21
2022-10-20T01:45:45.850Z,67.10
2022-10-20T01:48:15.602Z,67.92
2022-10-20T01:50:43.389Z,68.39
2022-10-20T01:53:10.319Z,68.53
2022-10-20T01:55:38.772Z,68.84
2022-10-20T01:58:21.184Z,69.30
2022-10-20T02:00:51.212Z,69.40
2022-10-20T02:03:36.779Z,69.26
2022-10-20T02:10:14.492Z,69.46
2022-10-20T02:12:45.466Z,69.14
2022-10-20T02:15:18.153Z,68.90
2022-10-20T02:17:49.351Z,68.87
2022-10-20T02:20:17.583Z,69.07
2022-10-20T02:22:45.140Z,69.36
2022-10-20T02:25:12.989Z,69.06
2022-10-20T02:27:44.894Z,68.63
2022-10-20T02:30:15.489Z,68.94
2022-10-20T02:32:44.394Z,68.75
2022-10-20T02:35:14.868Z,68.69
2022-10-20T02:37:41.690Z,68.57
2022-10-20T02:40:09.223Z,69.22
2022-10-20T02:42:36.076Z,68.80
2022-10-20T02:45:03.969Z,68.86
2022-10-20T02:47:30.746Z,68.83
2022-10-20T02:49:57.623Z,68.37
2022-10-20T02:52:24.458Z,68.84
2022-10-20T02:54:51.321Z,69.19
2022-10-20T02:57:18.101Z,69.04
2022-10-20T02:59:44.913Z,69.21
2022-10-20T03:02:11.777Z,68.93
2022-10-20T03:04:38.553Z,68.76
2022-10-20T03:07:05.357Z,68.42
2022-10-20T03:09:32.339Z,69.09
2022-10-20T03:11:59.120Z,68.75
2022-10-20T03:14:25.924Z,68.78
2022-10-20T03:16:52.768Z,68.69
2022-10-20T03:19:19.638Z,68.80
2022-10-20T03:21:46.928Z,68.65
2022-10-20T03:24:13.722Z,68.56
2022-10-20T03:26:40.544Z,69.26
2022-10-20T03:29:07.553Z,69.28
2022-10-20T03:31:34.454Z,69.69
2022-10-20T03:34:01.303Z,69.96
2022-10-20T03:36:28.078Z,70.62
2022-10-20T03:38:54.892Z,71.33
2022-10-20T03:41:21.765Z,71.35
2022-10-20T03:43:48.527Z,71.51
2022-10-20T03:46:15.393Z,71.51
2022-10-20T03:48:42.308Z,71.59
2022-10-20T03:51:12.248Z,71.51
2022-10-20T03:53:39.035Z,71.46
2022-10-20T03:56:10.857Z,71.30
2022-10-20T03:58:37.887Z,71.41
2022-10-20T04:01:06.530Z,71.50
2022-10-20T04:03:33.355Z,71.35
2022-10-20T04:06:02.757Z,71.30
2022-10-20T04:08:29.635Z,71.32
2022-10-20T04:10:57.496Z,71.00
2022-10-20T04:13:24.443Z,70.66
2022-10-20T04:15:51.247Z,70.60
2022-10-20T04:18:18.001Z,70.07
2022-10-20T04:20:44.918Z,69.97
2022-10-20T04:23:11.989Z,69.47
2022-10-20T04:25:45.957Z,69.60
2022-10-20T04:28:13.714Z,69.52
2022-10-20T04:30:40.545Z,69.66
2022-10-20T04:33:07.342Z,70.12
2022-10-20T04:35:34.395Z,70.37
2022-10-20T04:38:03.641Z,69.65
2022-10-20T04:40:30.513Z,69.46
2022-10-20T04:43:00.274Z,69.06
2022-10-20T04:45:27.554Z,68.66
2022-10-20T04:47:54.870Z,68.39
2022-10-20T04:50:22.071Z,68.08
2022-10-20T04:53:01.568Z,68.04
2022-10-20T04:55:28.344Z,68.03
2022-10-20T04:57:55.218Z,67.81
2022-10-20T05:00:22.007Z,67.66
2022-10-20T05:02:48.786Z,67.83
2022-10-20T05:05:15.644Z,68.00
2022-10-20T05:07:42.547Z,67.47
2022-10-20T05:10:09.876Z,68.02
2022-10-20T05:12:36.969Z,68.12
2022-10-20T05:15:04.515Z,68.14
2022-10-20T05:17:31.569Z,67.91
2022-10-20T05:19:58.411Z,68.06
2022-10-20T05:22:25.192Z,68.28
2022-10-20T05:24:52.045Z,67.92
2022-10-20T05:27:18.825Z,67.78
2022-10-20T05:29:45.594Z,68.12
2022-10-20T05:32:12.380Z,67.75
2022-10-20T05:34:39.366Z,67.65
2022-10-20T05:37:06.146Z,67.59
2022-10-20T05:39:32.961Z,67.62
2022-10-20T05:41:59.921Z,68.10
2022-10-20T05:44:26.814Z,68.30
2022-10-20T05:46:53.552Z,67.94
2022-10-20T05:49:20.393Z,68.03
2022-10-20T05:51:47.512Z,67.97
2022-10-20T05:54:14.798Z,67.92
2022-10-20T05:56:41.658Z,67.76
2022-10-20T05:59:09.725Z,68.18
2022-10-20T06:01:49.128Z,67.47
2022-10-20T06:04:23.769Z,67.36
2022-10-20T06:06:52.220Z,68.15
2022-10-20T06:09:20.451Z,68.06
2022-10-20T06:11:47.965Z,67.68
2022-10-20T06:14:14.920Z,67.74
2022-10-20T06:16:41.686Z,67.85
2022-10-20T06:19:08.481Z,67.76
2022-10-20T06:21:37.321Z,67.86
2022-10-20T06:24:05.962Z,67.94
2022-10-20T06:26:36.544Z,67.94
2022-10-20T06:29:05.923Z,67.98
2022-10-20T06:31:36.062Z,67.87
2022-10-20T06:34:05.782Z,67.94
2022-10-20T06:36:35.440Z,67.84
2022-10-20T06:39:04.579Z,67.77
2022-10-20T06:41:31.914Z,67.90
2022-10-20T06:44:00.012Z,67.45
2022-10-20T06:46:32.399Z,68.00
2022-10-20T06:49:05.193Z,67.31
2022-10-20T06:51:33.365Z,67.77
2022-10-20T06:54:00.968Z,67.73
2022-10-20T06:56:30.442Z,68.06
2022-10-20T06:58:58.475Z,67.29
2022-10-20T07:01:37.133Z,66.28
2022-10-20T07:04:11.253Z,67.64
2022-10-20T07:06:40.292Z,67.80
2022-10-20T07:09:09.232Z,67.86
2022-10-20T07:11:36.196Z,66.72
2022-10-20T07:14:04.085Z,67.22
2022-10-20T07:16:33.608Z,67.19
2022-10-20T07:19:01.990Z,67.05
2022-10-20T07:21:34.939Z,66.91
2022-10-20T07:24:06.313Z,66.83
2022-10-20T07:26:36.137Z,66.06
2022-10-20T07:29:04.173Z,65.46
2022-10-20T07:31:37.316Z,66.21
2022-10-20T07:34:23.766Z,65.54
2022-10-20T07:36:53.186Z,65.35
2022-10-20T07:39:20.136Z,65.39
2022-10-20T07:41:48.344Z,65.50
2022-10-20T07:44:16.005Z,65.53
2022-10-20T07:46:43.262Z,65.00
2022-10-20T07:49:42.853Z,65.12
2022-10-20T07:51:57.176Z,65.26
2022-10-20T07:54:23.977Z,64.15
2022-10-20T07:56:50.948Z,63.92
2022-10-20T07:59:17.771Z,63.88
2022-10-20T08:01:44.854Z,64.13
2022-10-20T08:04:12.035Z,64.12
2022-10-20T08:06:39.637Z,63.54
2022-10-20T08:09:07.606Z,63.18
2022-10-20T08:11:35.457Z,62.88
2022-10-20T08:14:02.245Z,63.00
2022-10-20T08:16:40.031Z,62.63
2022-10-20T08:19:19.273Z,62.20
2022-10-20T08:21:46.095Z,61.63
2022-10-20T08:24:12.924Z,61.68
2022-10-20T08:26:39.770Z,61.09
2022-10-20T08:29:06.705Z,60.94
2022-10-20T08:31:33.547Z,61.20
2022-10-20T08:34:00.464Z,58.56
2022-10-20T08:36:28.342Z,59.06
2022-10-20T08:38:56.512Z,58.87
2022-10-20T08:41:55.468Z,59.01
2022-10-20T08:44:29.262Z,58.90
2022-10-20T08:46:56.338Z,58.32
2022-10-20T08:49:30.785Z,58.45
2022-10-20T08:51:58.865Z,58.11
2022-10-20T08:54:25.836Z,57.06
2022-10-20T08:56:52.970Z,56.90
2022-10-20T08:59:40.053Z,56.19
2022-10-20T09:02:15.831Z,56.97
2022-10-20T09:04:48.341Z,57.22
2022-10-20T09:07:35.333Z,56.94
2022-10-20T09:10:27.222Z,54.96
2022-10-20T09:12:54.097Z,55.27
2022-10-20T09:15:22.747Z,54.87
2022-10-20T09:18:12.475Z,54.58
2022-10-20T09:20:57.229Z,54.88
2022-10-20T09:23:40.606Z,53.94
2022-10-20T09:26:30.485Z,53.33
2022-10-20T09:29:14.455Z,52.85
2022-10-20T09:31:46.508Z,54.45
2022-10-20T09:34:28.182Z,53.71
2022-10-20T09:37:04.693Z,53.60
2022-10-20T09:39:54.980Z,52.83
2022-10-20T09:42:25.059Z,52.57
2022-10-20T09:44:58.479Z,51.69
2022-10-20T09:47:27.527Z,51.02
2022-10-20T09:50:01.637Z,49.64
2022-10-20T09:52:34.510Z,50.54
2022-10-20T09:55:17.426Z,50.33
2022-10-20T09:57:48.384Z,48.96
2022-10-20T10:00:44.259Z,46.83
2022-10-20T10:03:21.604Z,49.14
2022-10-20T10:05:52.924Z,49.06
2022-10-20T10:08:22.025Z,47.90
2022-10-20T10:10:59.435Z,48.28
2022-10-20T10:13:29.302Z,48.73
2022-10-20T10:16:09.372Z,47.76
2022-10-20T10:18:38.508Z,47.90
2022-10-20T10:21:08.551Z,46.24
2022-10-20T10:23:41.118Z,45.16
2022-10-20T10:26:47.596Z,44.64
2022-10-20T10:29:24.333Z,44.68
2022-10-20T10:32:01.928Z,43.61
2022-10-20T10:34:42.707Z,43.83
2022-10-20T10:37:14.089Z,44.64
2022-10-20T10:39:41.845Z,44.64
2022-10-20T10:42:28.273Z,44.12
2022-10-20T10:45:17.299Z,43.17
2022-10-20T10:48:14.022Z,43.21
2022-10-20T10:51:05.760Z,41.88
2022-10-20T10:53:54.386Z,42.62
2022-10-20T10:56:39.633Z,42.58
2022-10-20T10:59:12.719Z,40.97
2022-10-20T11:02:33.829Z,38.33
2022-10-20T11:05:19.332Z,39.45
2022-10-20T11:07:55.072Z,37.60
2022-10-20T11:10:28.471Z,37.26
2022-10-20T11:13:32.828Z,37.13
2022-10-20T11:16:39.453Z,36.79
2022-10-20T11:19:08.999Z,36.60
2022-10-20T11:21:56.401Z,35.07
2022-10-20T11:24:41.512Z,34.60
2022-10-20T11:27:13.513Z,35.48
2022-10-20T11:29:55.215Z,35.01
2022-10-20T11:32:26.790Z,35.43
2022-10-20T11:35:20.801Z,32.81
2022-10-20T11:37:55.054Z,33.52
2022-10-20T11:40:25.197Z,33.89
2022-10-20T11:43:08.764Z,34.03
2022-10-20T11:45:58.284Z,33.28
2022-10-20T11:48:40.744Z,32.64
2022-10-20T11:51:28.482Z,33.29
2022-10-20T11:54:33.806Z,32.24
2022-10-20T11:57:15.611Z,31.47
2022-10-20T11:59:54.632Z,31.74
2022-10-20T12:02:44.578Z,31.71
2022-10-20T12:05:39.079Z,31.25
2022-10-20T12:08:52.564Z,30.56
2022-10-20T12:11:41.173Z,30.62
2022-10-20T12:14:26.547Z,30.56
2022-10-20T12:16:56.013Z,31.84
2022-10-20T12:19:30.875Z,30.32
2022-10-20T12:22:05.264Z,30.44
2022-10-20T12:25:01.874Z,30.05
2022-10-20T12:27:29.718Z,30.61
2022-10-20T12:30:33.275Z,31.24
2022-10-20T12:33:17.325Z,30.37
2022-10-20T12:36:14.881Z,28.57
2022-10-20T12:38:43.309Z,30.14
2022-10-20T12:41:25.449Z,29.27
2022-10-20T12:44:00.799Z,28.64
2022-10-20T12:46:31.574Z,29.39
2022-10-20T12:49:03.872Z,28.14
2022-10-20T12:51:37.939Z,28.87
2022-10-20T12:54:32.684Z,28.71
2022-10-20T12:57:04.848Z,29.50
2022-10-20T12:59:38.179Z,29.11
2022-10-20T13:02:11.211Z,30.34
2022-10-20T13:04:53.294Z,30.05
2022-10-20T13:07:48.187Z,29.70
2022-10-20T13:10:27.341Z,28.70
2022-10-20T13:13:16.145Z,30.84
2022-10-20T13:15:48.211Z,29.74
2022-10-20T13:18:26.882Z,29.06
2022-10-20T13:20:56.644Z,29.07
2022-10-20T13:23:31.714Z,29.52
2022-10-20T13:26:04.261Z,30.03
2022-10-20T13:28:32.359Z,29.46
2022-10-20T13:31:09.114Z,29.44
2022-10-20T13:34:03.217Z,28.64
2022-10-20T13:36:56.012Z,28.66
2022-10-20T13:40:13.567Z,29.40
2022-10-20T13:42:49.741Z,30.15
2022-10-20T13:45:48.348Z,29.41
2022-10-20T13:48:31.549Z,28.93
2022-10-20T13:51:05.942Z,29.31
2022-10-20T13:53:45.781Z,30.42
2022-10-20T13:56:15.310Z,29.84
2022-10-20T13:58:59.022Z,29.84
2022-10-20T14:01:31.135Z,29.88
2022-10-20T14:03:58.121Z,30.45
2022-10-20T14:06:28.297Z,31.07
2022-10-20T14:08:55.917Z,30.33
2022-10-20T14:11:23.217Z,30.99
2022-10-20T14:13:50.607Z,31.87
2022-10-20T14:16:22.648Z,32.18
2022-10-20T14:19:03.676Z,32.32
2022-10-20T14:21:39.448Z,31.99
2022-10-20T14:24:12.476Z,31.57
2022-10-20T14:26:44.243Z,32.19
2022-10-20T14:29:17.381Z,31.59
2022-10-20T14:31:46.313Z,31.55
2022-10-20T14:34:23.231Z,33.40
2022-10-20T14:36:51.605Z,33.81
2022-10-20T14:39:34.394Z,32.72
2022-10-20T14:42:25.375Z,33.55
2022-10-20T14:44:53.846Z,34.96
2022-10-20T14:47:21.373Z,34.36
2022-10-20T14:49:52.693Z,34.49
2022-10-20T14:52:21.893Z,35.47
2022-10-20T14:54:51.041Z,35.86
2022-10-20T14:57:17.764Z,36.50
2022-10-20T14:59:50.686Z,36.34
2022-10-20T15:02:20.736Z,35.57
2022-10-20T15:04:52.182Z,35.56
2022-10-20T15:07:23.469Z,34.42
2022-10-20T15:10:04.199Z,34.61
2022-10-20T15:12:42.864Z,35.10
2022-10-20T15:15:12.837Z,35.04
2022-10-20T15:17:44.127Z,35.51
2022-10-20T15:20:39.868Z,35.18
2022-10-20T15:23:18.189Z,35.53
2022-10-20T15:25:50.824Z,36.14
2022-10-20T15:28:40.583Z,35.82
2022-10-20T15:31:22.987Z,36.10
2022-10-20T15:33:50.392Z,36.47
2022-10-20T15:36:29.008Z,36.04
2022-10-20T15:38:56.623Z,36.73
2022-10-20T15:41:28.693Z,37.56
2022-10-20T15:43:55.657Z,37.52
2022-10-20T15:46:23.052Z,37.68
2022-10-20T15:48:49.925Z,38.93
2022-10-20T15:51:26.408Z,39.03
2022-10-20T15:53:53.567Z,39.01
2022-10-20T15:56:21.176Z,39.24
2022-10-20T15:58:50.146Z,39.57
2022-10-20T16:01:18.437Z,39.60
2022-10-20T16:03:46.444Z,40.43
2022-10-20T16:06:15.133Z,39.57
2022-10-20T16:08:46.994Z,39.10
2022-10-20T16:11:15.063Z,39.35
2022-10-20T16:13:42.328Z,39.61
2022-10-20T16:16:13.044Z,39.43
2022-10-20T16:18:39.956Z,39.45
2022-10-20T16:21:07.672Z,39.78
2022-10-20T16:23:42.197Z,40.03
2022-10-20T16:26:12.583Z,40.31
2022-10-20T16:28:39.520Z,40.56
2022-10-20T16:31:08.874Z,40.44
2022-10-20T16:33:36.031Z,40.42
2022-10-20T16:36:05.487Z,40.68
2022-10-20T16:38:37.358Z,40.80
2022-10-20T16:41:10.267Z,41.04
2022-10-20T16:43:41.654Z,41.24
2022-10-20T16:46:09.837Z,41.66
2022-10-20T16:48:39.025Z,41.80
2022-10-20T16:51:11.456Z,41.64
2022-10-20T16:53:38.242Z,41.99
2022-10-20T16:56:05.554Z,42.24
2022-10-20T16:58:32.388Z,42.53
2022-10-20T17:01:06.356Z,42.78
2022-10-20T17:03:33.403Z,42.89
2022-10-20T17:06:03.484Z,43.01
2022-10-20T17:08:32.083Z,43.39
2022-10-20T17:11:04.938Z,43.26
2022-10-20T17:13:32.237Z,43.35
2022-10-20T17:16:05.807Z,43.68
2022-10-20T17:18:33.006Z,43.72
2022-10-20T17:20:59.889Z,43.85
2022-10-20T17:23:26.988Z,44.24
2022-10-20T17:25:58.292Z,44.94
2022-10-20T17:28:25.073Z,44.94
2022-10-20T17:30:53.191Z,45.05
2022-10-20T17:33:19.968Z,45.28
2022-10-20T17:35:50.439Z,45.50
2022-10-20T17:38:17.208Z,45.64
2022-10-20T17:40:44.022Z,45.71
2022-10-20T17:43:10.804Z,45.80
2022-10-20T17:45:38.370Z,45.97
2022-10-20T17:48:05.528Z,46.04
2022-10-20T17:50:32.496Z,45.99
2022-10-20T17:53:01.314Z,45.97
2022-10-20T17:55:28.432Z,46.59
2022-10-20T17:57:55.404Z,46.74
2022-10-20T18:00:31.834Z,46.79
2022-10-20T18:03:09.079Z,46.81
2022-10-20T18:05:36.583Z,46.82
2022-10-20T18:08:03.489Z,46.92
2022-10-20T18:10:30.349Z,46.51
2022-10-20T18:12:57.149Z,46.82
2022-10-20T18:15:23.909Z,46.58
2022-10-20T18:17:50.791Z,46.58
2022-10-20T18:20:17.738Z,46.47
2022-10-20T18:22:45.598Z,46.37
2022-10-20T18:25:12.390Z,46.54
2022-10-20T18:27:39.161Z,46.67
2022-10-20T18:30:08.156Z,46.72
2022-10-20T18:32:36.529Z,46.86
2022-10-20T18:35:03.751Z,46.91
2022-10-20T18:37:30.537Z,46.81
2022-10-20T18:39:57.310Z,46.76
2022-10-20T18:42:24.091Z,46.91
2022-10-20T18:44:50.879Z,47.03
2022-10-20T18:47:17.727Z,47.15
2022-10-20T18:49:44.559Z,47.08
2022-10-20T18:52:11.371Z,47.67
2022-10-20T18:54:39.585Z,47.56
2022-10-20T18:57:06.397Z,47.29
2022-10-20T18:59:33.214Z,47.47
2022-10-20T19:01:59.999Z,47.65
2022-10-20T19:04:26.936Z,47.83
2022-10-20T19:06:53.907Z,47.89
2022-10-20T19:09:21.460Z,48.25
2022-10-20T19:14:17.386Z,48.25
2022-10-20T19:16:47.113Z,48.36
2022-10-20T19:19:14.508Z,48.46
2022-10-20T19:21:41.437Z,48.43
2022-10-20T19:24:16.727Z,48.76
2022-10-20T19:26:52.780Z,49.26
2022-10-20T19:29:29.582Z,49.99
2022-10-20T19:31:59.517Z,50.00
2022-10-20T19:34:29.368Z,50.17
2022-10-20T19:36:56.743Z,50.68
2022-10-20T19:39:27.426Z,50.65
2022-10-20T19:41:56.595Z,50.43
2022-10-20T19:44:23.907Z,50.31
2022-10-20T19:46:54.368Z,50.26
2022-10-20T19:49:22.384Z,50.37
2022-10-20T19:51:49.296Z,50.25
2022-10-20T19:54:16.538Z,50.28
2022-10-20T19:56:43.455Z,50.26
2022-10-20T19:59:11.095Z,50.64
2022-10-20T20:01:38.935Z,50.61
2022-10-20T20:04:06.615Z,50.67
2022-10-20T20:06:34.901Z,50.79
2022-10-20T20:09:05.453Z,50.43
2022-10-20T20:11:32.708Z,50.59
2022-10-20T20:14:06.868Z,50.84
2022-10-20T20:16:34.059Z,50.61
2022-10-20T20:19:00.954Z,50.78
2022-10-20T20:21:28.068Z,50.71
2022-10-20T20:23:59.789Z,50.72
2022-10-20T20:26:32.913Z,50.70
2022-10-20T20:29:00.274Z,50.74
2022-10-20T20:31:27.950Z,51.24
2022-10-20T20:33:56.829Z,51.40
2022-10-20T20:36:27.068Z,51.17
2022-10-20T20:38:57.477Z,51.24
2022-10-20T20:41:26.827Z,51.40
2022-10-20T20:43:53.898Z,51.28
2022-10-20T20:46:22.784Z,51.40
2022-10-20T20:48:50.310Z,51.33
2022-10-20T20:51:17.381Z,51.37
2022-10-20T20:53:44.424Z,51.33
2022-10-20T20:56:13.787Z,51.33
2022-10-20T20:58:42.203Z,51.44
2022-10-20T21:01:18.642Z,51.62
2022-10-20T21:03:46.292Z,51.64
2022-10-20T21:06:17.940Z,51.67
2022-10-20T21:08:47.831Z,51.91
2022-10-20T21:11:20.700Z,52.25
2022-10-20T21:13:49.033Z,52.17
2022-10-20T21:16:23.883Z,52.12
2022-10-20T21:18:53.041Z,52.22
2022-10-20T21:21:28.618Z,52.17
2022-10-20T21:23:57.189Z,52.07
2022-10-20T21:26:25.002Z,52.41
2022-10-20T21:28:53.169Z,52.15
2022-10-20T21:31:22.788Z,52.34
2022-10-20T21:33:51.670Z,52.21
2022-10-20T21:36:20.386Z,52.76
2022-10-20T21:38:47.693Z,52.72
2022-10-20T21:41:23.589Z,52.79
2022-10-20T21:43:53.060Z,52.65
2022-10-20T21:46:47.254Z,53.10
2022-10-20T21:49:17.213Z,52.74
2022-10-20T21:51:47.664Z,52.57
2022-10-20T21:54:17.260Z,52.69
2022-10-20T21:56:46.904Z,53.22
2022-10-20T21:59:25.351Z,53.14
2022-10-20T22:01:54.383Z,53.61
2022-10-20T22:04:23.993Z,53.87
2022-10-20T22:06:51.415Z,53.49
2022-10-20T22:09:18.417Z,53.51
2022-10-20T22:11:49.964Z,53.93
2022-10-20T22:14:16.764Z,53.78
2022-10-20T22:16:43.949Z,53.72
2022-10-20T22:19:17.686Z,53.58
2022-10-20T22:21:46.670Z,53.55
2022-10-20T22:24:14.680Z,53.48
2022-10-20T22:26:41.912Z,53.50
2022-10-20T22:29:12.262Z,53.71
2022-10-20T22:31:40.804Z,53.90
2022-10-20T22:34:08.617Z,54.01
2022-10-20T22:36:35.732Z,54.19
2022-10-20T22:39:02.881Z,54.49
2022-10-20T22:41:29.790Z,54.62
2022-10-20T22:43:58.039Z,54.86
2022-10-20T22:46:25.327Z,55.32
2022-10-20T22:48:52.139Z,55.31
2022-10-20T22:51:19.116Z,55.46
2022-10-20T22:53:45.900Z,55.19
2022-10-20T22:56:16.296Z,54.92
2022-10-20T22:58:43.532Z,55.07
2022-10-20T23:01:19.096Z,55.26
2022-10-20T23:03:46.449Z,55.08
2022-10-20T23:06:15.852Z,55.06
2022-10-20T23:08:45.212Z,55.17
2022-10-20T23:11:13.009Z,55.22
2022-10-20T23:13:39.828Z,55.24
2022-10-20T23:16:07.381Z,55.25
2022-10-20T23:18:34.643Z,55.74
2022-10-20T23:21:01.525Z,55.87
2022-10-20T23:23:28.712Z,55.46
2022-10-20T23:25:56.874Z,55.68
2022-10-20T23:28:25.384Z,55.46
2022-10-20T23:30:52.145Z,55.88
2022-10-20T23:33:18.955Z,56.86
2022-10-20T23:35:46.662Z,56.51
2022-10-20T23:38:13.424Z,56.64
2022-10-20T23:40:40.213Z,56.69
2022-10-20T23:43:06.998Z,57.32
2022-10-20T23:45:36.898Z,57.88
2022-10-20T23:48:04.912Z,58.33
2022-10-20T23:50:31.739Z,58.43
2022-10-20T23:52:58.560Z,58.51
2022-10-20T23:55:25.375Z,58.60
2022-10-20T23:57:52.219Z,58.44
